Terminal Aerodrome Forecast
Issued by NWS Wilmington, OH

Current Version | Previous Version | Text Only | Print | Product List | Glossary Off
Versions: 1 2 3 4 5 6 7 8 9 10 11 12 13 14 15 16 17 18

000
FTUS41 KILN 040800 AAA
TAFDAY
TAF AMD
KDAY 040806Z 0408/0506 33003KT P6SM FEW080
     FM041300 35005KT P6SM FEW040 SCT120
     FM041800 32006KT P6SM SCT050
     FM050000 VRB03KT P6SM FEW040=

USA.gov is the U.S. government's official web portal to all federal, state and local government web resources and services.